Time;durP1;ratioP1;P1;durP2;ratioP2;P2;SDS_P1;SDS_P2;PMS_P1;PMS_P2;Temp;Humidity;BMP_temperature;BMP_pressure;BME280_temperature;BME280_humidity;BME280_pressure;Samples;Min_cycle;Max_cycle;Signal;HPM_P1;HPM_P2
2022/05/08 00:00:31;;;;;;;3.57;3.27;;;22.40;52.80;;;;;;5057951;28;20179;-91
2022/05/08 00:02:57;;;;;;;3.60;3.30;;;22.40;52.90;;;;;;5056466;28;20445;-90
2022/05/08 00:05:24;;;;;;;3.50;3.20;;;22.40;52.90;;;;;;5056125;28;20613;-90
2022/05/08 00:07:50;;;;;;;3.77;3.47;;;22.30;52.90;;;;;;5056541;28;20604;-90
2022/05/08 00:10:16;;;;;;;3.60;3.30;;;22.30;52.90;;;;;;5055320;28;20203;-90
2022/05/08 00:12:42;;;;;;;3.57;3.27;;;22.30;52.90;;;;;;5056479;28;20201;-91
2022/05/08 00:15:08;;;;;;;4.50;3.30;;;22.30;52.90;;;;;;5055869;28;20178;-91
2022/05/08 00:17:36;;;;;;;3.43;3.13;;;22.30;53.00;;;;;;5057008;28;20348;-91
2022/05/08 00:20:06;;;;;;;3.70;3.33;;;22.30;53.00;;;;;;5057219;28;20176;-91
2022/05/08 00:22:31;;;;;;;3.80;3.37;;;22.20;53.00;;;;;;5057820;28;20171;-91
2022/05/08 00:24:57;;;;;;;3.40;3.10;;;22.30;53.00;;;;;;5056633;28;20200;-90
2022/05/08 00:27:23;;;;;;;3.37;3.07;;;22.30;53.00;;;;;;5055625;28;20213;-91
2022/05/08 00:29:49;;;;;;;4.20;3.30;;;22.30;53.00;;;;;;5056082;28;20258;-91
2022/05/08 00:32:15;;;;;;;3.70;3.20;;;22.20;53.00;;;;;;5057087;28;20183;-91
2022/05/08 00:34:40;;;;;;;4.50;3.50;;;22.20;52.90;;;;;;5057268;28;20175;-90
2022/05/08 00:37:06;;;;;;;3.20;2.90;;;22.20;52.90;;;;;;5056907;28;20183;-91
2022/05/08 00:39:32;;;;;;;3.83;3.00;;;22.20;52.90;;;;;;5057809;28;20194;-91
2022/05/08 00:42:01;;;;;;;2.97;2.77;;;22.20;52.90;;;;;;5057222;28;20175;-90
2022/05/08 00:44:27;;;;;;;3.30;3.00;;;22.20;52.90;;;;;;5057175;28;20414;-91
2022/05/08 00:46:53;;;;;;;3.63;2.70;;;22.10;52.80;;;;;;5057049;28;20229;-91
2022/05/08 00:49:19;;;;;;;3.20;2.90;;;22.10;52.80;;;;;;5057362;28;20179;-91
2022/05/08 00:51:48;;;;;;;2.80;2.60;;;22.10;52.80;;;;;;5055563;28;20183;-91
2022/05/08 00:54:15;;;;;;;2.97;2.50;;;22.10;52.80;;;;;;5058787;28;20238;-91
2022/05/08 00:56:41;;;;;;;2.90;2.70;;;22.00;52.80;;;;;;5058961;28;20244;-91
2022/05/08 00:59:06;;;;;;;2.93;2.60;;;22.00;52.70;;;;;;5059558;28;20183;-90
2022/05/08 01:01:32;;;;;;;3.10;2.80;;;22.00;52.70;;;;;;5061093;28;20186;-91
2022/05/08 01:03:58;;;;;;;3.00;2.70;;;22.00;52.70;;;;;;5060894;28;20651;-90
2022/05/08 01:06:24;;;;;;;3.63;2.50;;;22.00;52.70;;;;;;5061970;28;20493;-91
2022/05/08 01:08:51;;;;;;;3.27;2.60;;;22.00;52.70;;;;;;5061043;28;20171;-91
2022/05/08 01:11:18;;;;;;;2.67;2.47;;;21.90;52.70;;;;;;5060519;28;20274;-91
2022/05/08 01:13:45;;;;;;;3.77;2.60;;;21.90;52.70;;;;;;5061979;28;20172;-90
2022/05/08 01:16:13;;;;;;;2.50;2.30;;;21.90;52.60;;;;;;5061288;28;20183;-91
2022/05/08 01:18:39;;;;;;;3.47;2.63;;;21.90;52.60;;;;;;5061193;28;20211;-91
2022/05/08 01:21:09;;;;;;;2.73;2.53;;;21.90;52.60;;;;;;5060522;28;20469;-91
2022/05/08 01:23:35;;;;;;;2.60;2.40;;;21.90;52.60;;;;;;5060532;28;20240;-91
2022/05/08 01:26:01;;;;;;;3.47;2.40;;;21.80;52.60;;;;;;5061393;28;20490;-91
2022/05/08 01:28:29;;;;;;;3.07;2.40;;;21.80;52.60;;;;;;5061518;28;20171;-90
2022/05/08 01:30:55;;;;;;;2.83;2.30;;;21.80;52.60;;;;;;5060404;28;20171;-91
2022/05/08 01:33:21;;;;;;;3.00;2.30;;;21.80;52.50;;;;;;5060140;28;20172;-90
2022/05/08 01:35:49;;;;;;;2.43;2.23;;;21.80;52.60;;;;;;5061236;28;20183;-90
2022/05/08 01:38:17;;;;;;;4.07;2.40;;;21.80;52.50;;;;;;5060462;28;20412;-90
2022/05/08 01:40:44;;;;;;;2.30;2.10;;;21.70;52.50;;;;;;5060440;28;20183;-90
2022/05/08 01:43:10;;;;;;;2.33;2.13;;;21.70;52.50;;;;;;5060829;28;20171;-90
2022/05/08 01:45:37;;;;;;;2.80;2.40;;;21.70;52.50;;;;;;5061115;28;20365;-90
2022/05/08 01:48:21;;;;;;;4.17;2.37;;;21.70;52.50;;;;;;5060825;28;20547;-90
2022/05/08 01:50:50;;;;;;;2.57;2.30;;;21.70;52.50;;;;;;5078076;28;20175;-90
2022/05/08 01:53:26;;;;;;;2.53;2.20;;;21.60;52.40;;;;;;5060691;28;20178;-90
2022/05/08 01:55:56;;;;;;;3.03;2.30;;;21.60;52.40;;;;;;5060562;28;20271;-91
2022/05/08 01:58:26;;;;;;;2.30;2.10;;;21.60;52.40;;;;;;5060715;28;20174;-90
2022/05/08 02:00:54;;;;;;;2.83;2.53;;;21.60;52.40;;;;;;5061002;28;20175;-91
2022/05/08 02:03:21;;;;;;;2.33;2.10;;;21.60;52.40;;;;;;5059094;28;20432;-91
2022/05/08 02:05:47;;;;;;;2.67;2.20;;;21.60;52.40;;;;;;5060695;28;20291;-91
2022/05/08 02:08:14;;;;;;;2.77;2.10;;;21.50;52.30;;;;;;5060204;28;20559;-91
2022/05/08 02:10:40;;;;;;;2.03;1.83;;;21.50;52.70;;;;;;5060073;28;20197;-91
2022/05/08 02:13:10;;;;;;;2.47;2.20;;;21.50;52.30;;;;;;5060230;28;20184;-91
2022/05/08 02:15:36;;;;;;;3.97;2.30;;;21.50;52.30;;;;;;5059748;28;20171;-91
2022/05/08 02:18:10;;;;;;;3.50;2.10;;;21.50;52.30;;;;;;5059592;28;20593;-90
2022/05/08 02:20:37;;;;;;;3.13;2.30;;;21.50;52.30;;;;;;5059015;28;20263;-91
2022/05/08 02:23:03;;;;;;;5.10;2.70;;;21.40;52.20;;;;;;5059244;28;20179;-90
2022/05/08 02:25:30;;;;;;;3.03;2.47;;;21.40;52.20;;;;;;5059494;28;20207;-91
2022/05/08 02:27:56;;;;;;;2.53;2.20;;;21.40;52.20;;;;;;5060725;28;20576;-90
2022/05/08 02:30:23;;;;;;;2.70;2.50;;;21.40;52.20;;;;;;5060108;28;20169;-90
2022/05/08 02:32:51;;;;;;;2.73;2.40;;;21.40;52.20;;;;;;5059327;28;20272;-91
2022/05/08 02:35:17;;;;;;;2.53;2.30;;;21.30;52.20;;;;;;5060475;28;20279;-91
2022/05/08 02:37:43;;;;;;;2.63;2.13;;;21.30;52.20;;;;;;5060576;28;20554;-92
2022/05/08 02:40:10;;;;;;;2.30;2.10;;;21.30;52.10;;;;;;5059618;28;20179;-91
2022/05/08 02:42:36;;;;;;;3.17;2.50;;;21.30;52.10;;;;;;5059533;28;20201;-91
2022/05/08 02:45:03;;;;;;;3.33;2.20;;;21.30;52.10;;;;;;5059632;28;20181;-91
2022/05/08 02:47:31;;;;;;;2.50;2.07;;;21.30;52.10;;;;;;5077454;28;20601;-90
2022/05/08 02:49:57;;;;;;;3.33;2.57;;;21.20;52.10;;;;;;5059707;28;20579;-90
2022/05/08 02:52:23;;;;;;;2.33;2.13;;;21.20;52.10;;;;;;5058860;28;20180;-91
2022/05/08 02:54:48;;;;;;;3.30;2.13;;;21.20;52.10;;;;;;5076488;28;20182;-90
2022/05/08 03:00:07;;;;;;;2.97;2.50;;;21.20;52.10;;;;;;5076806;28;20269;-90
2022/05/08 03:02:34;;;;;;;2.70;2.20;;;21.10;52.00;;;;;;5041714;28;20182;-92
2022/05/08 03:05:09;;;;;;;3.23;2.40;;;21.10;52.00;;;;;;5059265;28;20269;-90
2022/05/08 03:07:35;;;;;;;2.63;2.03;;;21.10;52.10;;;;;;5059670;28;20540;-91
2022/05/08 03:10:00;;;;;;;2.50;2.30;;;21.10;52.00;;;;;;5058910;28;20177;-90
2022/05/08 03:12:26;;;;;;;3.20;2.63;;;21.00;52.00;;;;;;5058807;28;20183;-90
2022/05/08 03:14:52;;;;;;;2.40;2.20;;;21.00;52.00;;;;;;5059067;28;20260;-90
2022/05/08 03:17:18;;;;;;;4.53;2.70;;;21.00;52.00;;;;;;5058183;28;20621;-89
2022/05/08 03:19:44;;;;;;;3.57;2.43;;;21.00;51.90;;;;;;5058561;28;20174;-89
2022/05/08 03:22:10;;;;;;;2.87;2.30;;;21.00;51.90;;;;;;5059157;28;20329;-90
2022/05/08 03:24:36;;;;;;;2.73;2.20;;;21.00;51.90;;;;;;5059347;28;20515;-90
2022/05/08 03:27:01;;;;;;;2.57;2.37;;;20.90;51.90;;;;;;5058947;28;20509;-90
2022/05/08 03:29:27;;;;;;;3.40;2.20;;;20.90;51.90;;;;;;5058925;28;20550;-89
2022/05/08 03:31:53;;;;;;;3.43;2.30;;;20.90;51.80;;;;;;5058408;28;20468;-90
2022/05/08 03:34:19;;;;;;;2.80;2.50;;;20.90;51.80;;;;;;5075676;28;20175;-90
2022/05/08 03:36:45;;;;;;;3.70;2.33;;;20.90;51.70;;;;;;5058662;28;20170;-90
2022/05/08 03:39:14;;;;;;;3.40;2.40;;;20.90;51.70;;;;;;5059111;28;20217;-89
2022/05/08 03:41:39;;;;;;;4.57;2.70;;;20.90;51.60;;;;;;5058648;28;20177;-90
2022/05/08 03:44:05;;;;;;;4.27;2.13;;;20.80;51.50;;;;;;5058966;28;20185;-90
2022/05/08 03:46:31;;;;;;;2.97;2.20;;;20.80;51.40;;;;;;5057603;28;20203;-91
2022/05/08 03:48:57;;;;;;;3.87;2.27;;;20.80;51.40;;;;;;5075708;28;20182;-90
2022/05/08 03:51:23;;;;;;;3.40;2.37;;;20.70;51.20;;;;;;5058147;28;20274;-90
2022/05/08 03:53:48;;;;;;;5.23;2.40;;;20.70;51.20;;;;;;5058247;28;20272;-91
2022/05/08 03:56:14;;;;;;;3.13;2.20;;;20.70;51.20;;;;;;5076375;28;20203;-91
2022/05/08 03:58:41;;;;;;;3.17;2.20;;;20.70;51.10;;;;;;5058160;28;20167;-90
2022/05/08 04:01:07;;;;;;;3.87;2.33;;;20.60;51.10;;;;;;5059171;28;20221;-91
2022/05/08 04:03:33;;;;;;;3.03;2.40;;;20.70;51.10;;;;;;5075313;28;20222;-91
2022/05/08 04:05:58;;;;;;;4.83;2.23;;;20.60;51.00;;;;;;5058753;28;20203;-90
2022/05/08 04:08:24;;;;;;;3.80;2.37;;;20.60;50.90;;;;;;5058263;28;20175;-91
2022/05/08 04:10:50;;;;;;;3.30;2.30;;;20.60;50.90;;;;;;5058369;28;20855;-91
2022/05/08 04:13:16;;;;;;;3.10;2.37;;;20.60;50.90;;;;;;5058072;28;20249;-91
2022/05/08 04:18:26;;;;;;;3.70;2.40;;;20.50;50.80;;;;;;5075713;28;20511;-91
2022/05/08 04:20:51;;;;;;;2.93;2.30;;;20.50;50.80;;;;;;5057783;28;20184;-91
2022/05/08 04:26:01;;;;;;;3.97;2.27;;;20.50;50.80;;;;;;5075007;28;20212;-92
2022/05/08 04:28:27;;;;;;;3.87;2.30;;;20.40;50.70;;;;;;5058116;28;20169;-92
2022/05/08 04:30:53;;;;;;;2.93;2.07;;;20.40;50.70;;;;;;5058272;28;20170;-92
2022/05/08 04:33:19;;;;;;;3.90;2.30;;;20.40;50.70;;;;;;5057622;28;20236;-92
2022/05/08 04:35:44;;;;;;;4.87;2.00;;;20.40;50.60;;;;;;5058071;28;20485;-92
2022/05/08 04:38:11;;;;;;;3.40;2.47;;;20.40;50.60;;;;;;5057802;28;20186;-91
2022/05/08 04:40:38;;;;;;;3.83;2.23;;;20.30;50.60;;;;;;5057785;28;20183;-91
2022/05/08 04:43:04;;;;;;;3.60;2.23;;;20.30;50.60;;;;;;5057703;28;20188;-91
2022/05/08 04:45:30;;;;;;;3.23;2.10;;;20.40;50.60;;;;;;5056898;28;20180;-92
2022/05/08 04:47:56;;;;;;;2.70;2.10;;;20.30;50.50;;;;;;5057577;28;20601;-91
2022/05/08 04:50:21;;;;;;;3.60;2.30;;;20.30;50.50;;;;;;5057651;28;20560;-91
2022/05/08 04:52:47;;;;;;;4.00;2.40;;;20.30;50.50;;;;;;5056899;28;20176;-92
2022/05/08 04:55:13;;;;;;;3.20;2.10;;;20.30;50.50;;;;;;5057400;28;20177;-91
2022/05/08 04:57:39;;;;;;;3.90;2.17;;;20.30;50.40;;;;;;5057636;28;20178;-92
2022/05/08 05:00:05;;;;;;;4.77;2.23;;;20.30;50.50;;;;;;5057452;28;20181;-91
2022/05/08 05:02:31;;;;;;;3.47;2.00;;;20.30;50.40;;;;;;5057382;28;20214;-91
2022/05/08 05:04:57;;;;;;;4.07;2.63;;;20.20;50.30;;;;;;5057351;28;20203;-92
2022/05/08 05:07:24;;;;;;;3.40;2.30;;;20.20;50.30;;;;;;5058077;28;20221;-92
2022/05/08 05:09:50;;;;;;;4.90;2.20;;;20.30;50.30;;;;;;5056984;28;20227;-92
2022/05/08 05:12:15;;;;;;;4.17;2.20;;;20.20;50.20;;;;;;5056828;28;20197;-92
2022/05/08 05:14:41;;;;;;;5.20;2.47;;;20.20;50.10;;;;;;5057399;28;20179;-91
2022/05/08 05:17:07;;;;;;;4.90;2.63;;;20.20;50.10;;;;;;5056964;28;20336;-92
2022/05/08 05:19:33;;;;;;;5.43;2.20;;;20.20;50.10;;;;;;5057287;28;20186;-93
2022/05/08 05:21:58;;;;;;;4.83;2.20;;;20.20;50.10;;;;;;5057069;28;20443;-91
2022/05/08 05:24:24;;;;;;;5.50;2.70;;;20.20;50.00;;;;;;5057202;28;20173;-91
2022/05/08 05:26:52;;;;;;;4.97;2.40;;;20.10;50.00;;;;;;5056657;28;20213;-92
2022/05/08 05:29:18;;;;;;;3.73;2.20;;;20.10;49.90;;;;;;5057246;28;20174;-92
2022/05/08 05:31:43;;;;;;;5.23;2.23;;;20.10;49.90;;;;;;5056575;28;20290;-92
2022/05/08 05:34:09;;;;;;;5.17;2.47;;;20.20;49.90;;;;;;5056253;28;20537;-92
2022/05/08 05:36:35;;;;;;;4.37;2.07;;;20.20;49.90;;;;;;5056144;28;20524;-92
2022/05/08 05:39:00;;;;;;;5.20;2.27;;;20.10;49.80;;;;;;5057216;28;20182;-92
2022/05/08 05:41:26;;;;;;;4.43;2.37;;;20.10;49.80;;;;;;5060310;28;20462;-91
2022/05/08 05:43:52;;;;;;;4.30;2.33;;;20.10;49.80;;;;;;5060124;28;20177;-92
2022/05/08 05:49:02;;;;;;;4.53;2.13;;;20.10;49.70;;;;;;5077473;28;20620;-92
2022/05/08 05:51:28;;;;;;;5.33;2.20;;;20.20;49.70;;;;;;5077548;28;20182;-92
2022/05/08 05:53:54;;;;;;;4.80;2.20;;;20.20;49.60;;;;;;5059936;28;20236;-92
2022/05/08 05:56:20;;;;;;;4.53;1.97;;;20.20;49.60;;;;;;5059727;28;20175;-91
2022/05/08 05:58:45;;;;;;;4.30;2.00;;;20.20;49.50;;;;;;5059080;28;20456;-92
2022/05/08 06:01:11;;;;;;;3.63;1.87;;;20.20;49.50;;;;;;5059150;28;20185;-91
2022/05/08 06:03:38;;;;;;;5.07;2.30;;;20.20;49.50;;;;;;5059827;28;20236;-91
2022/05/08 06:06:04;;;;;;;5.20;2.30;;;20.20;49.50;;;;;;5059665;28;20206;-93
2022/05/08 06:08:30;;;;;;;5.53;2.47;;;20.20;49.50;;;;;;5059848;28;20174;-91
2022/05/08 06:10:55;;;;;;;5.83;2.40;;;20.10;49.50;;;;;;5059692;28;20190;-92
2022/05/08 06:13:24;;;;;;;3.07;2.10;;;20.10;49.50;;;;;;5058531;28;20191;-92
2022/05/08 06:15:49;;;;;;;4.33;2.03;;;20.10;49.50;;;;;;5060167;28;20186;-92
2022/05/08 06:18:15;;;;;;;5.07;2.30;;;20.10;49.50;;;;;;5059555;28;20231;-92
2022/05/08 06:20:41;;;;;;;3.90;2.13;;;20.10;49.60;;;;;;5059510;28;20219;-91
2022/05/08 06:23:07;;;;;;;3.93;2.13;;;20.10;49.70;;;;;;5059741;28;20363;-91
2022/05/08 06:25:33;;;;;;;5.13;2.20;;;20.20;49.90;;;;;;5058392;28;20196;-91
2022/05/08 06:27:58;;;;;;;7.00;2.50;;;20.10;50.00;;;;;;5059028;28;20210;-91
2022/05/08 06:30:24;;;;;;;5.10;2.23;;;20.10;50.00;;;;;;5058504;28;20174;-91
2022/05/08 06:32:50;;;;;;;6.57;2.20;;;20.10;50.10;;;;;;5058065;28;20182;-91
2022/05/08 06:35:16;;;;;;;5.40;2.40;;;20.10;50.10;;;;;;5057586;28;20173;-91
2022/05/08 06:37:41;;;;;;;5.50;2.50;;;20.00;50.10;;;;;;5059234;28;20206;-91
2022/05/08 06:40:08;;;;;;;5.27;2.37;;;20.00;50.00;;;;;;5058334;28;20179;-91
2022/05/08 06:42:34;;;;;;;7.23;2.30;;;20.00;50.00;;;;;;5057860;28;20466;-90
2022/05/08 06:44:59;;;;;;;4.53;2.20;;;20.00;50.00;;;;;;5074511;28;20572;-91
2022/05/08 06:47:25;;;;;;;4.20;2.30;;;20.00;50.00;;;;;;5056810;28;20467;-91
2022/05/08 06:49:51;;;;;;;6.47;2.40;;;20.00;49.90;;;;;;5057864;28;20183;-91
2022/05/08 06:52:17;;;;;;;3.83;2.03;;;20.00;49.90;;;;;;5058425;28;20601;-90
2022/05/08 06:54:42;;;;;;;3.70;2.00;;;20.00;49.90;;;;;;5059145;28;20178;-90
2022/05/08 06:57:08;;;;;;;4.93;2.33;;;20.00;49.90;;;;;;5058267;28;20180;-90
2022/05/08 07:02:18;;;;;;;4.50;2.10;;;20.00;49.80;;;;;;5074535;28;20177;-90
2022/05/08 07:04:45;;;;;;;3.87;1.97;;;20.00;49.80;;;;;;5057442;28;20510;-91
2022/05/08 07:07:11;;;;;;;3.60;2.03;;;20.00;49.80;;;;;;5058244;28;20224;-90
2022/05/08 07:09:36;;;;;;;4.70;2.07;;;20.00;49.90;;;;;;5057815;28;20448;-90
2022/05/08 07:12:02;;;;;;;4.83;2.10;;;19.90;50.00;;;;;;5057071;28;20187;-91
2022/05/08 07:14:28;;;;;;;4.30;2.10;;;20.00;50.00;;;;;;5057601;28;20181;-91
2022/05/08 07:16:54;;;;;;;3.87;2.20;;;19.90;49.90;;;;;;5074490;28;20180;-91
2022/05/08 07:19:20;;;;;;;4.83;2.37;;;19.90;49.90;;;;;;5057286;28;20180;-91
2022/05/08 07:21:45;;;;;;;6.20;2.30;;;20.00;49.80;;;;;;5058168;28;20186;-90
2022/05/08 07:24:11;;;;;;;6.57;2.63;;;20.10;49.70;;;;;;5057166;28;20186;-90
2022/05/08 07:26:37;;;;;;;4.33;2.23;;;20.10;49.70;;;;;;5057062;28;20211;-90
2022/05/08 07:29:04;;;;;;;4.60;2.10;;;20.20;49.70;;;;;;5057715;28;20571;-90
2022/05/08 07:31:31;;;;;;;5.13;2.10;;;20.20;49.50;;;;;;5056451;28;20182;-90
2022/05/08 07:36:41;;;;;;;4.77;2.37;;;20.20;49.40;;;;;;5074602;28;20256;-89
2022/05/08 07:39:07;;;;;;;4.17;1.93;;;20.20;49.30;;;;;;5057199;28;20255;-91
2022/05/08 07:41:33;;;;;;;5.47;2.37;;;20.20;49.30;;;;;;5057655;28;20171;-90
2022/05/08 07:43:59;;;;;;;5.20;2.00;;;20.30;49.20;;;;;;5074678;28;20183;-90
2022/05/08 07:46:25;;;;;;;4.37;2.30;;;20.50;48.90;;;;;;5074120;28;20203;-89
2022/05/08 07:48:51;;;;;;;3.70;1.97;;;20.50;48.70;;;;;;5056865;28;20230;-90
2022/05/08 07:51:17;;;;;;;5.00;2.30;;;20.40;48.80;;;;;;5056440;28;20180;-89
2022/05/08 07:53:43;;;;;;;5.80;2.00;;;20.40;48.90;;;;;;5056191;28;20176;-89
2022/05/08 07:56:10;;;;;;;4.77;2.33;;;20.30;49.00;;;;;;5039572;28;20207;-90
2022/05/08 07:58:36;;;;;;;3.97;2.30;;;20.30;49.10;;;;;;5055636;28;20179;-90
2022/05/08 08:01:02;;;;;;;8.03;2.33;;;20.20;49.10;;;;;;5056054;28;20179;-90
2022/05/08 08:03:30;;;;;;;3.33;2.10;;;20.30;49.10;;;;;;5056253;28;20179;-90
2022/05/08 08:05:57;;;;;;;3.63;1.77;;;20.30;49.00;;;;;;5072937;28;20248;-90
2022/05/08 08:08:25;;;;;;;6.03;2.20;;;20.30;49.00;;;;;;5055771;28;20566;-90
2022/05/08 08:10:58;;;;;;;5.17;2.30;;;20.30;48.90;;;;;;5055489;28;20171;-90
2022/05/08 08:13:26;;;;;;;5.63;2.00;;;20.30;48.90;;;;;;5071780;28;20284;-90
2022/05/08 08:15:52;;;;;;;4.10;2.03;;;20.30;48.90;;;;;;5054481;28;20180;-90
2022/05/08 08:18:18;;;;;;;4.63;2.27;;;20.40;48.90;;;;;;5054840;28;20171;-90
2022/05/08 08:20:45;;;;;;;5.00;2.20;;;20.40;48.80;;;;;;5054925;28;20179;-90
2022/05/08 08:23:11;;;;;;;5.23;2.43;;;20.40;48.80;;;;;;5055609;28;20240;-90
2022/05/08 08:25:38;;;;;;;4.37;2.23;;;20.40;48.80;;;;;;5055548;28;20230;-90
2022/05/08 08:28:04;;;;;;;5.30;2.03;;;20.50;48.70;;;;;;5054201;28;20200;-91
2022/05/08 08:30:30;;;;;;;5.60;2.23;;;21.10;48.10;;;;;;5055228;28;20234;-90
2022/05/08 08:32:56;;;;;;;4.27;2.00;;;21.30;47.60;;;;;;5072291;28;20175;-91
2022/05/08 08:35:24;;;;;;;4.63;2.10;;;21.40;47.40;;;;;;5054422;28;20203;-90
2022/05/08 08:37:50;;;;;;;4.40;2.00;;;21.50;47.40;;;;;;5073245;28;20183;-91
2022/05/08 08:40:15;;;;;;;5.83;2.20;;;21.70;47.10;;;;;;5054832;28;20178;-91
2022/05/08 08:42:43;;;;;;;8.27;2.83;;;21.40;47.20;;;;;;5072756;28;20174;-92
2022/05/08 08:48:09;;;;;;;5.73;2.40;;;21.60;47.10;;;;;;5071846;28;20233;-93
2022/05/08 08:50:35;;;;;;;5.70;2.30;;;21.40;47.00;;;;;;5054289;28;20171;-92
2022/05/08 08:53:03;;;;;;;4.73;2.20;;;21.20;47.30;;;;;;5054455;28;20175;-92
2022/05/08 08:55:29;;;;;;;5.97;2.23;;;21.30;47.40;;;;;;5054560;28;20179;-92
2022/05/08 08:57:58;;;;;;;5.77;2.33;;;21.30;47.10;;;;;;5054203;28;20171;-92
2022/05/08 09:00:24;;;;;;;6.27;2.33;;;21.20;47.10;;;;;;5054036;28;20200;-92
2022/05/08 09:02:53;;;;;;;6.40;2.47;;;21.10;47.10;;;;;;5053608;28;20182;-92
2022/05/08 09:05:19;;;;;;;4.77;2.43;;;21.10;47.20;;;;;;5053997;28;20171;-92
2022/05/08 09:08:08;;;;;;;7.23;2.70;;;21.10;47.20;;;;;;5052929;28;20351;-89
2022/05/08 09:10:36;;;;;;;5.60;2.17;;;21.10;47.20;;;;;;5050225;28;20184;-90
2022/05/08 09:13:07;;;;;;;4.03;2.03;;;21.20;47.10;;;;;;5054450;28;20187;-91
2022/05/08 09:15:38;;;;;;;4.47;2.00;;;21.30;47.10;;;;;;5056435;28;20178;-92
2022/05/08 09:18:09;;;;;;;4.53;2.10;;;21.30;47.10;;;;;;5058015;28;20168;-91
2022/05/08 09:20:36;;;;;;;6.00;2.20;;;21.60;46.70;;;;;;5055913;28;20172;-91
2022/05/08 09:23:22;;;;;;;4.83;2.33;;;21.60;46.70;;;;;;5056680;28;20160;-91
2022/05/08 09:25:59;;;;;;;5.23;2.33;;;21.60;46.60;;;;;;5058139;28;20222;-92
2022/05/08 09:28:28;;;;;;;6.23;2.33;;;21.50;46.70;;;;;;5057940;28;20167;-91
2022/05/08 09:31:05;;;;;;;7.00;1.87;;;21.40;46.80;;;;;;5056923;28;20167;-91
2022/05/08 09:33:31;;;;;;;6.40;2.13;;;21.50;46.80;;;;;;5057578;28;20163;-91
2022/05/08 09:35:59;;;;;;;4.53;2.23;;;21.50;46.80;;;;;;5059129;28;20221;-91
2022/05/08 09:38:48;;;;;;;8.23;2.43;;;21.40;46.90;;;;;;5057395;28;20175;-91
2022/05/08 09:41:38;;;;;;;5.60;2.47;;;21.30;47.00;;;;;;5057381;28;20199;-91
2022/05/08 09:44:11;;;;;;;5.90;2.37;;;21.30;47.10;;;;;;5058756;28;20206;-91
2022/05/08 09:46:38;;;;;;;3.93;1.93;;;21.30;47.20;;;;;;5058343;28;20241;-90
2022/05/08 09:49:06;;;;;;;5.03;2.30;;;21.30;47.20;;;;;;5056619;28;20221;-91
2022/05/08 09:51:33;;;;;;;4.60;2.20;;;21.30;47.30;;;;;;5057048;28;20266;-91
2022/05/08 09:54:00;;;;;;;3.50;2.00;;;21.30;47.30;;;;;;5057627;28;20168;-91
2022/05/08 09:56:25;;;;;;;5.13;1.97;;;21.30;47.30;;;;;;5056160;28;20589;-91
2022/05/08 09:58:51;;;;;;;4.57;2.10;;;21.30;47.30;;;;;;5055909;28;20203;-92
2022/05/08 10:01:17;;;;;;;5.30;2.00;;;21.30;47.30;;;;;;5056269;28;20180;-92
2022/05/08 10:03:43;;;;;;;3.67;2.10;;;21.40;47.30;;;;;;5073974;28;20426;-91
2022/05/08 10:06:10;;;;;;;6.17;2.30;;;21.40;47.30;;;;;;5055735;28;20480;-90
2022/05/08 10:08:37;;;;;;;4.67;1.97;;;21.40;47.30;;;;;;5056268;28;20169;-91
2022/05/08 10:16:42;;;;;;;4.73;2.13;;;21.50;47.30;;;;;;5073301;28;20186;-91
2022/05/08 10:19:23;;;;;;;6.03;1.90;;;21.50;47.30;;;;;;5054206;28;20172;-90
2022/05/08 10:21:59;;;;;;;5.27;2.07;;;21.50;47.30;;;;;;5055570;28;20363;-91
2022/05/08 10:24:33;;;;;;;6.23;2.33;;;21.50;47.30;;;;;;5055055;28;20185;-91
2022/05/08 10:27:17;;;;;;;5.50;1.93;;;21.50;47.30;;;;;;5054549;28;20298;-91
2022/05/08 10:29:50;;;;;;;4.73;1.87;;;21.50;47.30;;;;;;5055833;28;20187;-92
2022/05/08 10:32:31;;;;;;;3.70;1.90;;;21.60;47.40;;;;;;5054486;28;20170;-91
2022/05/08 10:35:06;;;;;;;3.63;2.00;;;21.60;47.40;;;;;;5054811;28;20176;-91
2022/05/08 10:37:32;;;;;;;4.83;2.07;;;21.60;47.40;;;;;;5055457;28;20250;-92
2022/05/08 10:39:58;;;;;;;5.23;2.10;;;21.60;47.40;;;;;;5072441;28;20575;-91
2022/05/08 10:42:33;;;;;;;5.37;1.83;;;21.60;47.40;;;;;;5056507;28;20320;-91
2022/05/08 10:45:03;;;;;;;4.97;2.10;;;21.60;47.40;;;;;;5055115;28;20229;-91
2022/05/08 10:50:04;;;;;;;4.40;2.10;;;21.70;47.40;;;;;;5072619;28;20556;-91
2022/05/08 10:52:30;;;;;;;5.40;2.07;;;21.70;47.40;;;;;;5055359;28;20262;-91
2022/05/08 10:54:57;;;;;;;4.67;1.80;;;21.70;47.30;;;;;;5054758;28;20286;-91
2022/05/08 10:57:37;;;;;;;3.93;2.10;;;21.70;47.30;;;;;;5055958;28;20171;-92
2022/05/08 11:00:05;;;;;;;4.73;2.10;;;21.70;47.30;;;;;;5054727;28;20427;-90
2022/05/08 11:02:44;;;;;;;3.60;1.60;;;21.70;47.30;;;;;;5053873;28;20187;-90
2022/05/08 11:05:21;;;;;;;4.97;2.13;;;21.70;47.30;;;;;;5054873;28;20586;-90
2022/05/08 11:08:02;;;;;;;4.87;2.07;;;21.70;47.30;;;;;;5054153;28;20367;-90
2022/05/08 11:10:34;;;;;;;3.90;2.17;;;21.80;47.30;;;;;;5054616;28;20169;-90
2022/05/08 11:13:05;;;;;;;5.67;2.00;;;21.80;47.30;;;;;;5053610;28;20574;-90
2022/05/08 11:15:32;;;;;;;3.70;1.73;;;21.80;47.30;;;;;;5052988;28;20202;-90
2022/05/08 11:18:07;;;;;;;3.87;1.90;;;21.70;47.30;;;;;;5053729;28;20213;-90
2022/05/08 11:20:36;;;;;;;3.53;1.93;;;21.80;47.20;;;;;;5054008;28;20387;-90
2022/05/08 11:23:05;;;;;;;2.77;1.80;;;21.70;47.10;;;;;;5054432;28;20171;-90
2022/05/08 11:25:33;;;;;;;5.73;2.27;;;21.70;47.20;;;;;;5052799;28;20465;-90
2022/05/08 11:27:59;;;;;;;5.23;2.00;;;21.70;47.20;;;;;;5052867;28;20183;-90
2022/05/08 11:30:38;;;;;;;3.67;1.87;;;21.70;47.20;;;;;;5053858;28;20175;-91
2022/05/08 11:36:06;;;;;;;4.37;1.80;;;21.70;47.30;;;;;;5070641;28;20625;-92
2022/05/08 11:38:41;;;;;;;4.63;1.80;;;21.70;47.30;;;;;;5054243;28;20175;-93
2022/05/08 11:41:15;;;;;;;3.80;1.90;;;21.70;47.30;;;;;;5053934;28;20240;-92
2022/05/08 11:43:46;;;;;;;3.03;1.67;;;21.70;47.30;;;;;;5072329;28;20196;-92
2022/05/08 11:46:17;;;;;;;4.53;1.97;;;21.70;47.30;;;;;;5054614;28;20201;-92
2022/05/08 11:48:48;;;;;;;2.93;1.60;;;21.70;47.30;;;;;;5053039;28;20229;-92
2022/05/08 11:51:17;;;;;;;4.20;1.93;;;21.70;47.30;;;;;;5051636;28;20657;-91
2022/05/08 11:53:46;;;;;;;3.70;1.83;;;21.70;47.30;;;;;;5053462;28;20186;-93
2022/05/08 11:56:35;;;;;;;4.67;2.17;;;21.70;47.30;;;;;;5053520;28;20167;-91
2022/05/08 11:59:15;;;;;;;3.33;1.70;;;21.70;47.40;;;;;;5054718;28;20179;-92
2022/05/08 12:01:54;;;;;;;4.33;1.90;;;21.70;47.40;;;;;;5053770;28;20173;-90
2022/05/08 12:04:30;;;;;;;3.53;1.60;;;21.70;47.80;;;;;;5052570;28;20168;-90
2022/05/08 12:07:06;;;;;;;3.47;1.77;;;21.70;47.40;;;;;;5053640;28;20213;-90
2022/05/08 12:09:43;;;;;;;2.63;1.43;;;21.70;47.50;;;;;;5054186;28;20270;-90
2022/05/08 12:12:31;;;;;;;6.00;1.90;;;21.70;47.50;;;;;;5052805;28;20187;-91
2022/05/08 12:17:42;;;;;;;3.83;1.70;;;21.70;47.60;;;;;;5070108;28;20197;-90
2022/05/08 12:20:11;;;;;;;3.00;1.60;;;21.70;47.50;;;;;;5051970;28;20181;-90
2022/05/08 12:22:37;;;;;;;3.40;1.80;;;21.70;47.60;;;;;;5053393;28;20196;-91
2022/05/08 12:25:04;;;;;;;4.17;1.90;;;21.70;47.60;;;;;;5051365;28;20174;-92
2022/05/08 12:27:30;;;;;;;3.37;1.70;;;21.70;47.70;;;;;;5050735;28;20214;-90
2022/05/08 12:29:56;;;;;;;4.53;1.97;;;21.70;47.60;;;;;;5050609;28;20171;-91
2022/05/08 12:32:24;;;;;;;4.17;1.80;;;21.70;47.60;;;;;;5049842;28;20230;-91
2022/05/08 12:34:53;;;;;;;2.83;1.57;;;21.70;47.50;;;;;;5052001;28;20206;-90
2022/05/08 12:37:19;;;;;;;4.07;1.90;;;21.70;47.60;;;;;;5053659;28;20427;-92
2022/05/08 12:39:46;;;;;;;4.77;1.80;;;21.70;47.60;;;;;;5069937;28;20383;-93
2022/05/08 12:42:12;;;;;;;4.37;1.53;;;21.70;47.50;;;;;;5050507;28;20173;-92
2022/05/08 12:44:38;;;;;;;5.67;2.27;;;21.70;47.50;;;;;;5051466;28;20169;-91
2022/05/08 12:47:08;;;;;;;4.93;1.97;;;21.70;47.50;;;;;;5068155;28;20591;-91
2022/05/08 12:49:36;;;;;;;3.40;1.67;;;21.70;47.50;;;;;;5057293;28;20296;-92
2022/05/08 12:52:03;;;;;;;4.07;1.80;;;21.70;47.50;;;;;;5057934;28;20171;-91
2022/05/08 12:54:30;;;;;;;3.37;1.60;;;21.70;47.40;;;;;;5058066;28;20352;-91
2022/05/08 12:56:56;;;;;;;2.87;1.40;;;21.70;47.40;;;;;;5057577;28;20182;-92
2022/05/08 13:02:06;;;;;;;4.17;1.50;;;21.70;47.40;;;;;;5075204;28;20265;-92
2022/05/08 13:04:33;;;;;;;2.33;1.50;;;21.70;47.30;;;;;;5056761;28;20277;-93
2022/05/08 13:06:59;;;;;;;2.07;1.53;;;21.70;47.30;;;;;;5056178;28;20203;-92
2022/05/08 13:09:24;;;;;;;3.07;1.53;;;21.70;47.20;;;;;;5056851;28;20478;-91
2022/05/08 13:11:50;;;;;;;4.03;1.50;;;21.70;47.20;;;;;;5058131;28;20271;-91
2022/05/08 13:14:16;;;;;;;3.07;1.80;;;21.60;47.10;;;;;;5058543;28;20563;-91
2022/05/08 13:16:42;;;;;;;4.00;1.80;;;21.70;47.30;;;;;;5059684;28;20183;-91
2022/05/08 13:19:08;;;;;;;3.77;1.60;;;21.70;47.20;;;;;;5060743;28;20629;-91
2022/05/08 13:21:37;;;;;;;2.77;1.70;;;21.70;47.20;;;;;;5057587;28;20585;-91
2022/05/08 13:24:03;;;;;;;4.00;1.87;;;21.60;47.30;;;;;;5058139;28;20457;-92
2022/05/08 13:26:30;;;;;;;2.80;1.60;;;21.60;47.20;;;;;;5059932;28;20236;-91